createdAt,value
2019-04-06T00:00:36.328Z,32.15
2019-04-06T00:03:07.914Z,30.90
2019-04-06T00:05:39.449Z,28.77
2019-04-06T00:08:12.107Z,29.02
2019-04-06T00:10:44.452Z,31.62
2019-04-06T00:13:17.057Z,32.80
2019-04-06T00:15:48.512Z,33.55
2019-04-06T00:18:20.110Z,30.30
2019-04-06T00:20:52.869Z,31.55
2019-04-06T00:23:25.359Z,31.12
2019-04-06T00:25:56.868Z,32.33
2019-04-06T00:28:28.372Z,30.40
2019-04-06T00:31:21.926Z,30.55
2019-04-06T00:33:53.486Z,35.38
2019-04-06T00:36:25.197Z,28.67
2019-04-06T00:38:56.724Z,33.83
2019-04-06T00:41:28.446Z,29.75
2019-04-06T00:44:01.710Z,33.18
2019-04-06T00:46:35.620Z,29.67
2019-04-06T00:49:06.970Z,31.27
2019-04-06T00:51:38.329Z,30.02
2019-04-06T00:54:09.950Z,31.07
2019-04-06T00:56:41.635Z,33.10
2019-04-06T00:59:13.325Z,30.45
2019-04-06T01:01:44.797Z,30.50
2019-04-06T01:04:16.274Z,29.27
2019-04-06T01:06:48.062Z,30.07
2019-04-06T01:09:19.742Z,26.70
2019-04-06T01:11:52.810Z,26.42
2019-04-06T01:14:24.340Z,29.60
2019-04-06T01:16:56.052Z,32.75
2019-04-06T01:19:28.717Z,27.75
2019-04-06T01:22:00.081Z,26.17
2019-04-06T01:24:31.892Z,26.40
2019-04-06T01:27:03.276Z,32.23
2019-04-06T01:29:34.904Z,25.12
2019-04-06T01:32:06.537Z,32.23
2019-04-06T01:34:37.961Z,26.67
2019-04-06T01:37:09.266Z,34.70
2019-04-06T01:39:40.687Z,29.90
2019-04-06T01:42:12.157Z,29.60
2019-04-06T01:44:44.459Z,32.42
2019-04-06T01:47:16.162Z,36.08
2019-04-06T01:49:47.526Z,28.40
2019-04-06T01:52:19.083Z,32.93
2019-04-06T01:54:50.605Z,28.83
2019-04-06T01:57:22.083Z,32.55
2019-04-06T01:59:53.879Z,34.10
2019-04-06T02:02:28.719Z,28.85
2019-04-06T02:05:00.072Z,32.45
2019-04-06T02:07:32.347Z,32.78
2019-04-06T02:10:04.634Z,30.13
2019-04-06T02:12:35.916Z,34.07
2019-04-06T02:15:08.485Z,33.98
2019-04-06T02:17:39.859Z,29.65
2019-04-06T02:20:11.652Z,30.52
2019-04-06T02:22:44.138Z,33.17
2019-04-06T02:25:15.503Z,42.93
2019-04-06T02:27:47.083Z,25.92
2019-04-06T02:30:25.716Z,31.00
2019-04-06T02:33:09.382Z,35.80
2019-04-06T02:36:12.261Z,33.18
2019-04-06T02:39:03.142Z,36.28
2019-04-06T02:42:01.803Z,31.12
2019-04-06T02:44:33.363Z,26.83
2019-04-06T02:47:05.167Z,35.17
2019-04-06T02:49:36.982Z,32.58
2019-04-06T02:52:08.381Z,28.20
2019-04-06T02:54:39.854Z,29.98
2019-04-06T02:57:11.427Z,28.13
2019-04-06T02:59:42.857Z,33.33
2019-04-06T03:02:14.297Z,34.05
2019-04-06T03:04:45.773Z,30.77
2019-04-06T03:07:17.174Z,34.53
2019-04-06T03:09:48.775Z,35.95
2019-04-06T03:12:21.368Z,35.67
2019-04-06T03:14:53.026Z,34.93
2019-04-06T03:17:24.700Z,33.00
2019-04-06T03:19:55.923Z,35.10
2019-04-06T03:22:27.300Z,31.83
2019-04-06T03:24:59.138Z,31.00
2019-04-06T03:27:30.509Z,35.78
2019-04-06T03:30:01.706Z,29.45
2019-04-06T03:32:33.463Z,31.27
2019-04-06T03:35:05.096Z,31.57
2019-04-06T03:37:37.016Z,36.73
2019-04-06T03:40:08.932Z,33.10
2019-04-06T03:42:40.571Z,28.00
2019-04-06T03:45:12.371Z,34.98
2019-04-06T03:47:43.759Z,29.25
2019-04-06T03:50:15.986Z,28.62
2019-04-06T03:52:47.662Z,32.78
2019-04-06T03:55:18.939Z,32.85
2019-04-06T03:57:50.552Z,31.97
2019-04-06T04:00:22.149Z,34.57
2019-04-06T04:02:54.096Z,30.33
2019-04-06T04:05:25.473Z,33.02
2019-04-06T04:07:57.091Z,29.35
2019-04-06T04:10:37.430Z,31.13
2019-04-06T04:13:08.838Z,35.17
2019-04-06T04:15:40.108Z,35.00
2019-04-06T04:18:11.600Z,34.08
2019-04-06T04:20:43.117Z,32.90
2019-04-06T04:23:15.793Z,29.67
2019-04-06T04:25:47.274Z,32.63
2019-04-06T04:28:18.906Z,34.53
2019-04-06T04:30:51.280Z,35.37
2019-04-06T04:33:22.736Z,36.08
2019-04-06T04:35:54.253Z,35.35
2019-04-06T04:38:25.983Z,36.60
2019-04-06T04:40:57.516Z,37.20
2019-04-06T04:43:28.830Z,36.20
2019-04-06T04:46:00.436Z,37.37
2019-04-06T04:48:32.033Z,32.13
2019-04-06T04:51:03.585Z,31.90
2019-04-06T04:53:35.046Z,31.55
2019-04-06T04:56:06.576Z,33.13
2019-04-06T04:58:38.156Z,34.13
2019-04-06T05:01:10.124Z,37.33
2019-04-06T05:03:41.795Z,32.78
2019-04-06T05:06:13.248Z,33.90
2019-04-06T05:08:44.823Z,31.17
2019-04-06T05:11:16.562Z,32.50
2019-04-06T05:13:47.835Z,33.85
2019-04-06T05:16:20.152Z,37.58
2019-04-06T05:18:52.934Z,38.60
2019-04-06T05:21:24.306Z,31.50
2019-04-06T05:23:55.966Z,31.75
2019-04-06T05:26:37.005Z,36.25
2019-04-06T05:29:01.043Z,33.88
2019-04-06T05:31:35.005Z,31.90
2019-04-06T05:34:06.509Z,35.03
2019-04-06T05:39:35.267Z,33.07
2019-04-06T05:42:15.831Z,35.25
2019-04-06T05:45:22.857Z,30.23
2019-04-06T05:47:59.032Z,33.63
2019-04-06T05:50:33.749Z,29.03
2019-04-06T05:56:27.831Z,30.88
2019-04-06T05:58:59.233Z,34.23
2019-04-06T06:01:50.106Z,35.25
2019-04-06T06:04:33.445Z,33.15
2019-04-06T06:07:05.968Z,32.28
2019-04-06T06:09:37.358Z,30.02
2019-04-06T06:12:11.477Z,29.70
2019-04-06T06:14:43.726Z,31.37
2019-04-06T06:17:15.684Z,31.02
2019-04-06T06:19:46.965Z,28.70
2019-04-06T06:22:26.599Z,31.30
2019-04-06T06:24:58.016Z,28.85
2019-04-06T06:27:31.727Z,31.10
2019-04-06T06:30:04.566Z,25.40
2019-04-06T06:32:36.155Z,39.38
2019-04-06T06:35:07.565Z,38.30
2019-04-06T06:37:38.993Z,33.58
2019-04-06T06:40:13.617Z,35.55
2019-04-06T06:42:45.052Z,28.70
2019-04-06T06:45:16.428Z,29.80
2019-04-06T06:47:55.832Z,31.12
2019-04-06T06:50:27.365Z,28.12
2019-04-06T06:52:58.976Z,30.02
2019-04-06T06:55:30.301Z,24.75
2019-04-06T06:58:02.004Z,27.62
2019-04-06T07:00:33.516Z,27.75
2019-04-06T07:03:05.072Z,29.63
2019-04-06T07:05:36.589Z,33.90
2019-04-06T07:08:07.915Z,35.10
2019-04-06T07:10:39.330Z,36.58
2019-04-06T07:13:10.968Z,35.28
2019-04-06T07:15:43.383Z,33.55
2019-04-06T07:18:15.505Z,31.77
2019-04-06T07:20:47.917Z,31.17
2019-04-06T07:23:19.751Z,32.83
2019-04-06T07:25:57.369Z,26.37
2019-04-06T07:28:31.722Z,31.68
2019-04-06T07:34:03.074Z,40.88
2019-04-06T07:36:34.503Z,27.37
2019-04-06T07:39:07.049Z,28.27
2019-04-06T07:41:38.428Z,31.42
2019-04-06T07:44:10.048Z,31.93
2019-04-06T07:46:41.728Z,28.70
2019-04-06T07:49:13.318Z,26.75
2019-04-06T07:51:45.141Z,29.00
2019-04-06T07:54:16.511Z,27.25
2019-04-06T07:56:47.847Z,29.57
2019-04-06T07:59:20.948Z,30.92
2019-04-06T08:01:52.452Z,27.40
2019-04-06T08:04:23.953Z,32.13
2019-04-06T08:06:57.149Z,31.12
2019-04-06T08:09:28.896Z,33.53
2019-04-06T08:12:00.405Z,24.92
2019-04-06T08:14:32.430Z,30.05
2019-04-06T08:17:03.743Z,29.63
2019-04-06T08:19:35.457Z,31.62
2019-04-06T08:22:06.984Z,30.57
2019-04-06T08:24:38.441Z,27.95
2019-04-06T08:27:10.196Z,25.55
2019-04-06T08:29:41.623Z,31.82
2019-04-06T08:32:13.147Z,29.95
2019-04-06T08:34:44.535Z,29.25
2019-04-06T08:37:16.058Z,27.02
2019-04-06T08:39:47.410Z,26.57
2019-04-06T08:42:22.449Z,26.70
2019-04-06T08:44:57.248Z,30.80
2019-04-06T08:47:29.882Z,30.15
2019-04-06T08:50:01.710Z,24.07
2019-04-06T08:52:34.260Z,30.75
2019-04-06T08:55:06.163Z,27.80
2019-04-06T08:57:37.921Z,26.42
2019-04-06T09:00:10.721Z,35.30
2019-04-06T09:02:42.297Z,28.05
2019-04-06T09:05:14.218Z,20.32
2019-04-06T09:07:45.534Z,27.55
2019-04-06T09:10:17.424Z,26.97
2019-04-06T09:12:48.877Z,22.70
2019-04-06T09:15:20.609Z,22.17
2019-04-06T09:17:52.119Z,21.60
2019-04-06T09:20:23.901Z,21.45
2019-04-06T09:22:55.364Z,29.40
2019-04-06T09:25:26.980Z,32.03
2019-04-06T09:27:59.083Z,23.85
2019-04-06T09:30:30.535Z,24.30
2019-04-06T09:33:01.986Z,31.95
2019-04-06T09:35:33.796Z,18.67
2019-04-06T09:38:05.362Z,27.67
2019-04-06T09:40:38.020Z,20.48
2019-04-06T09:43:09.486Z,32.23
2019-04-06T09:45:47.598Z,32.25
2019-04-06T09:48:38.176Z,23.25
2019-04-06T09:51:36.915Z,21.10
2019-04-06T09:54:32.264Z,21.80
2019-04-06T09:57:21.641Z,20.77
2019-04-06T10:00:01.244Z,26.87
2019-04-06T10:03:09.360Z,18.55
2019-04-06T10:05:57.022Z,24.65
2019-04-06T10:08:51.176Z,27.02
2019-04-06T10:11:48.257Z,23.92
2019-04-06T10:14:41.715Z,18.17
2019-04-06T10:17:30.834Z,22.73
2019-04-06T10:20:30.510Z,20.82
2019-04-06T10:23:33.024Z,20.75
2019-04-06T10:26:25.574Z,23.32
2019-04-06T10:29:31.806Z,16.25
2019-04-06T10:32:10.235Z,22.52
2019-04-06T10:47:10.346Z,19.37
2019-04-06T10:49:57.886Z,18.52
2019-04-06T10:52:58.853Z,21.17
2019-04-06T10:56:12.857Z,20.48
2019-04-06T10:59:08.199Z,19.37
2019-04-06T11:02:00.053Z,23.18
2019-04-06T11:04:49.401Z,23.02
2019-04-06T11:08:02.264Z,16.77
2019-04-06T11:10:58.173Z,14.90
2019-04-06T11:13:50.121Z,16.30
2019-04-06T11:16:39.683Z,16.57
2019-04-06T11:19:51.726Z,15.15
2019-04-06T11:22:36.085Z,18.32
2019-04-06T11:25:22.074Z,15.45
2019-04-06T11:28:14.109Z,17.02
2019-04-06T11:31:19.641Z,22.13
2019-04-06T11:34:21.590Z,14.65
2019-04-06T11:37:23.058Z,16.90
2019-04-06T11:40:18.830Z,13.78
2019-04-06T11:43:24.940Z,25.60
2019-04-06T11:46:39.145Z,12.75
2019-04-06T11:49:40.884Z,18.35
2019-04-06T11:52:47.878Z,17.25
2019-04-06T11:55:48.291Z,21.77
2019-04-06T11:58:32.461Z,22.25
2019-04-06T12:01:26.206Z,18.62
2019-04-06T12:04:18.468Z,19.12
2019-04-06T12:07:08.910Z,28.35
2019-04-06T12:09:49.576Z,21.27
2019-04-06T12:12:43.059Z,22.13
2019-04-06T12:15:45.683Z,19.07
2019-04-06T12:18:36.763Z,28.30
2019-04-06T12:21:25.627Z,14.90
2019-04-06T12:24:13.474Z,23.77
2019-04-06T12:27:15.212Z,22.30
2019-04-06T12:30:18.069Z,15.68
2019-04-06T12:33:11.244Z,19.52
2019-04-06T12:36:17.042Z,21.25
2019-04-06T12:39:19.561Z,20.72
2019-04-06T12:42:25.562Z,21.33
2019-04-06T12:45:17.562Z,21.23
2019-04-06T12:48:09.022Z,22.60
2019-04-06T12:51:02.145Z,23.38
2019-04-06T12:54:00.350Z,25.88
2019-04-06T12:56:38.090Z,17.05
2019-04-06T12:59:23.397Z,14.73
2019-04-06T13:02:22.148Z,20.62
2019-04-06T13:05:14.225Z,24.00
2019-04-06T13:08:20.323Z,16.32
2019-04-06T13:11:25.909Z,18.25
2019-04-06T13:14:06.288Z,19.48
2019-04-06T13:16:58.586Z,19.25
2019-04-06T13:19:42.694Z,21.75
2019-04-06T13:22:29.200Z,16.45
2019-04-06T13:25:34.994Z,19.20
2019-04-06T13:28:15.864Z,18.00
2019-04-06T13:31:08.050Z,17.52
2019-04-06T13:34:04.869Z,22.42
2019-04-06T13:36:58.250Z,21.60
2019-04-06T13:39:45.031Z,20.05
2019-04-06T13:42:50.951Z,20.08
2019-04-06T13:45:51.775Z,15.00
2019-04-06T13:48:42.206Z,27.15
2019-04-06T13:51:23.256Z,25.70
2019-04-06T13:54:19.901Z,23.18
2019-04-06T13:57:21.092Z,21.23
2019-04-06T14:00:11.152Z,20.43
2019-04-06T14:03:15.796Z,23.00
2019-04-06T14:05:59.301Z,19.00
2019-04-06T14:08:52.999Z,16.97
2019-04-06T14:11:43.657Z,24.95
2019-04-06T14:14:46.902Z,23.18
2019-04-06T14:17:46.202Z,20.52
2019-04-06T14:20:32.872Z,24.80
2019-04-06T14:23:22.210Z,29.87
2019-04-06T14:26:32.283Z,19.25
2019-04-06T14:29:19.719Z,26.87
2019-04-06T14:32:05.612Z,31.62
2019-04-06T14:35:02.426Z,33.02
2019-04-06T14:37:50.448Z,21.60
2019-04-06T14:40:44.657Z,26.85
2019-04-06T14:43:39.656Z,20.27
2019-04-06T14:46:48.234Z,28.90
2019-04-06T14:49:38.886Z,22.95
2019-04-06T14:52:31.048Z,19.90
2019-04-06T14:55:23.706Z,25.43
2019-04-06T14:58:15.185Z,24.63
2019-04-06T15:01:09.501Z,23.50
2019-04-06T15:03:54.670Z,20.85
2019-04-06T15:06:55.959Z,23.92
2019-04-06T15:10:16.491Z,19.65
2019-04-06T15:13:33.231Z,17.23
2019-04-06T15:17:00.083Z,21.82
2019-04-06T15:24:15.373Z,18.55
2019-04-06T15:41:03.257Z,18.42
2019-04-06T15:43:52.469Z,19.62
2019-04-06T15:46:44.641Z,20.97
2019-04-06T15:56:17.262Z,17.82
2019-04-06T15:59:09.912Z,18.90
2019-04-06T16:02:02.962Z,19.52
2019-04-06T16:04:40.873Z,23.90
2019-04-06T16:07:29.497Z,17.12
2019-04-06T16:10:13.097Z,19.87
2019-04-06T16:13:26.302Z,22.05
2019-04-06T16:16:12.738Z,18.00
2019-04-06T16:19:04.897Z,22.15
2019-04-06T16:22:05.580Z,16.00
2019-04-06T16:24:57.017Z,26.50
2019-04-06T16:28:01.533Z,24.85
2019-04-06T16:31:03.297Z,19.85
2019-04-06T16:33:58.929Z,18.50
2019-04-06T16:36:57.765Z,24.10
2019-04-06T16:39:41.099Z,17.70
2019-04-06T16:42:26.202Z,19.15
2019-04-06T16:45:22.835Z,21.95
2019-04-06T16:48:13.075Z,25.35
2019-04-06T16:50:59.081Z,17.92
2019-04-06T16:54:08.286Z,30.35
2019-04-06T16:56:59.446Z,59.88
2019-04-06T16:59:41.215Z,58.33
2019-04-06T17:02:31.953Z,54.55
2019-04-06T17:05:32.532Z,47.30
2019-04-06T17:08:29.354Z,46.75
2019-04-06T17:11:37.364Z,43.98
2019-04-06T17:14:22.019Z,36.50
2019-04-06T17:17:05.162Z,36.60
2019-04-06T17:20:10.360Z,36.20
2019-04-06T17:23:00.775Z,34.05
2019-04-06T17:25:59.134Z,32.85
2019-04-06T17:32:07.462Z,23.98
2019-04-06T17:34:57.173Z,26.42
2019-04-06T17:37:59.069Z,23.85
2019-04-06T17:43:49.731Z,23.73
2019-04-06T17:46:54.729Z,35.38
2019-04-06T17:49:56.383Z,64.58
2019-04-06T17:52:50.630Z,70.37
2019-04-06T17:55:50.538Z,76.02
2019-04-06T17:58:52.068Z,76.12
2019-04-06T18:01:51.094Z,72.10
2019-04-06T18:04:36.565Z,73.57
2019-04-06T18:07:29.773Z,83.10
2019-04-06T18:10:37.325Z,72.25
2019-04-06T18:16:12.696Z,64.92
2019-04-06T18:18:55.613Z,67.80
2019-04-06T18:21:42.452Z,63.60
2019-04-06T18:24:20.292Z,78.28
2019-04-06T18:26:57.409Z,74.00
2019-04-06T18:29:46.754Z,66.05
2019-04-06T18:33:01.762Z,62.50
2019-04-06T18:35:38.785Z,67.65
2019-04-06T18:38:31.840Z,60.67
2019-04-06T18:41:07.980Z,65.83
2019-04-06T18:43:40.808Z,54.40
2019-04-06T18:46:28.159Z,51.48
2019-04-06T18:49:03.272Z,49.93
2019-04-06T18:51:39.093Z,54.90
2019-04-06T18:54:15.514Z,49.63
2019-04-06T18:57:45.155Z,46.73
2019-04-06T19:00:56.399Z,53.20
2019-04-06T19:04:18.519Z,50.20
2019-04-06T19:08:04.314Z,51.00
2019-04-06T19:11:07.151Z,43.63
2019-04-06T19:14:39.383Z,49.48
2019-04-06T19:17:23.707Z,46.05
2019-04-06T19:20:23.416Z,45.45
2019-04-06T19:42:53.809Z,39.18
2019-04-06T19:46:20.212Z,38.53
2019-04-06T19:49:09.456Z,39.23
2019-04-06T19:51:57.738Z,45.73
2019-04-06T19:54:57.257Z,40.17
2019-04-06T19:57:59.670Z,41.83
2019-04-06T20:01:09.112Z,38.58
2019-04-06T20:04:40.864Z,40.17
2019-04-06T20:08:01.951Z,41.05
2019-04-06T20:11:33.112Z,42.83
2019-04-06T20:22:51.580Z,39.55
2019-04-06T20:26:19.667Z,40.78
2019-04-06T20:33:50.877Z,44.73
2019-04-06T20:51:12.522Z,47.80
2019-04-06T21:02:45.136Z,45.78
2019-04-06T21:06:56.221Z,54.13
2019-04-06T21:10:29.231Z,51.30
2019-04-06T21:14:04.289Z,40.80
2019-04-06T21:30:04.135Z,39.40
2019-04-06T21:33:47.487Z,40.98
2019-04-06T21:37:19.186Z,38.42
2019-04-06T21:43:52.144Z,39.48
2019-04-06T22:24:16.971Z,41.92
2019-04-06T22:26:50.634Z,37.23
2019-04-06T22:29:53.233Z,39.60
2019-04-06T22:32:42.007Z,38.63
2019-04-06T22:35:21.865Z,40.23
2019-04-06T22:38:27.216Z,39.67
2019-04-06T22:41:09.956Z,37.98
2019-04-06T22:43:44.950Z,37.93
2019-04-06T22:46:27.284Z,38.73
2019-04-06T22:49:00.148Z,41.95
2019-04-06T22:51:34.546Z,42.80
2019-04-06T22:54:11.605Z,41.25
2019-04-06T22:56:54.644Z,37.50
2019-04-06T22:59:50.892Z,42.07
2019-04-06T23:02:47.584Z,46.02
2019-04-06T23:39:16.174Z,41.67
2019-04-06T23:42:20.858Z,47.83
2019-04-06T23:46:04.041Z,46.95
2019-04-06T23:49:05.595Z,42.65
2019-04-06T23:51:53.272Z,45.17
2019-04-06T23:55:13.532Z,42.27
2019-04-06T23:58:15.364Z,46.37
